createdAt,value
2022-10-18T00:00:23.871Z,49.83
2022-10-18T00:03:26.440Z,45.83
2022-10-18T00:06:28.639Z,51.07
2022-10-18T00:09:30.979Z,52.40
2022-10-18T00:12:36.849Z,52.22
2022-10-18T00:15:39.428Z,56.65
2022-10-18T00:18:42.196Z,55.47
2022-10-18T00:24:51.748Z,59.55
2022-10-18T00:27:53.904Z,51.70
2022-10-18T00:30:56.264Z,50.10
2022-10-18T00:34:00.896Z,48.30
2022-10-18T00:37:03.902Z,46.00
2022-10-18T00:40:07.511Z,49.42
2022-10-18T00:43:16.236Z,56.97
2022-10-18T00:46:19.335Z,50.72
2022-10-18T00:49:25.596Z,50.57
2022-10-18T00:52:37.601Z,43.73
2022-10-18T00:55:40.483Z,44.35
2022-10-18T00:58:43.682Z,42.53
2022-10-18T01:01:47.604Z,44.85
2022-10-18T01:04:50.790Z,40.03
2022-10-18T01:08:08.834Z,38.10
2022-10-18T01:11:36.509Z,37.15
2022-10-18T01:14:55.474Z,39.45
2022-10-18T01:18:18.326Z,38.63
2022-10-18T01:21:27.461Z,44.43
2022-10-18T01:24:50.803Z,40.23
2022-10-18T01:28:13.416Z,49.42
2022-10-18T01:31:21.431Z,52.88
2022-10-18T01:34:26.877Z,53.55
2022-10-18T01:37:30.353Z,46.80
2022-10-18T01:40:33.679Z,50.87
2022-10-18T01:43:37.028Z,43.90
2022-10-18T01:46:40.054Z,46.53
2022-10-18T01:49:42.381Z,46.83
2022-10-18T01:52:49.753Z,43.23
2022-10-18T01:56:05.508Z,44.87
2022-10-18T01:59:29.005Z,47.60
2022-10-18T02:03:03.377Z,46.40
2022-10-18T02:06:13.340Z,46.55
2022-10-18T02:09:20.709Z,45.50
2022-10-18T02:12:23.076Z,41.57
2022-10-18T02:15:31.361Z,43.55
2022-10-18T02:18:37.281Z,43.70
2022-10-18T02:21:41.414Z,45.28
2022-10-18T02:24:48.812Z,45.13
2022-10-18T02:27:51.804Z,44.13
2022-10-18T02:31:12.438Z,46.10
2022-10-18T02:34:27.832Z,41.65
2022-10-18T02:37:33.727Z,40.45
2022-10-18T02:40:36.085Z,36.83
2022-10-18T02:43:38.322Z,39.80
2022-10-18T02:46:41.016Z,38.20
2022-10-18T02:49:43.118Z,35.88
2022-10-18T02:52:45.276Z,38.60
2022-10-18T02:55:47.408Z,34.43
2022-10-18T02:58:49.532Z,38.10
2022-10-18T03:01:51.706Z,36.55
2022-10-18T03:04:53.949Z,34.88
2022-10-18T03:07:59.487Z,37.05
2022-10-18T03:11:01.689Z,33.60
2022-10-18T03:14:03.838Z,35.47
2022-10-18T03:17:05.983Z,35.33
2022-10-18T03:20:08.526Z,33.35
2022-10-18T03:23:10.700Z,35.42
2022-10-18T03:26:12.918Z,36.33
2022-10-18T03:29:15.168Z,34.30
2022-10-18T03:32:17.284Z,33.00
2022-10-18T03:35:19.390Z,33.35
2022-10-18T03:38:21.559Z,31.38
2022-10-18T03:41:23.746Z,34.23
2022-10-18T03:44:25.904Z,35.40
2022-10-18T03:47:28.130Z,38.80
2022-10-18T03:50:30.281Z,35.80
2022-10-18T03:53:32.418Z,37.53
2022-10-18T03:56:34.665Z,40.07
2022-10-18T03:59:36.833Z,39.43
2022-10-18T04:02:39.119Z,34.00
2022-10-18T04:05:41.309Z,37.75
2022-10-18T04:08:43.429Z,35.80
2022-10-18T04:11:45.534Z,31.67
2022-10-18T04:14:47.670Z,34.93
2022-10-18T04:17:49.836Z,32.38
2022-10-18T04:20:52.054Z,31.58
2022-10-18T04:23:54.223Z,30.92
2022-10-18T04:26:56.314Z,31.17
2022-10-18T04:29:59.009Z,32.10
2022-10-18T04:33:02.519Z,33.97
2022-10-18T04:36:06.430Z,32.38
2022-10-18T04:39:09.427Z,36.92
2022-10-18T04:42:12.521Z,35.70
2022-10-18T04:45:15.611Z,32.47
2022-10-18T04:48:19.015Z,33.67
2022-10-18T04:51:22.005Z,31.77
2022-10-18T04:54:26.598Z,30.40
2022-10-18T04:57:31.889Z,36.50
2022-10-18T05:00:39.209Z,30.07
2022-10-18T05:03:43.179Z,35.47
2022-10-18T05:06:46.481Z,36.78
2022-10-18T05:09:49.468Z,35.78
2022-10-18T05:12:52.594Z,34.73
2022-10-18T05:15:56.168Z,34.63
2022-10-18T05:18:59.274Z,38.70
2022-10-18T05:22:02.054Z,41.58
2022-10-18T05:25:05.447Z,44.67
2022-10-18T05:28:10.755Z,41.83
2022-10-18T05:31:24.332Z,42.60
2022-10-18T05:34:27.840Z,46.75
2022-10-18T05:37:30.933Z,41.53
2022-10-18T05:40:34.334Z,48.63
2022-10-18T05:43:37.425Z,43.23
2022-10-18T05:46:40.418Z,45.17
2022-10-18T05:49:43.500Z,48.92
2022-10-18T05:52:46.396Z,46.58
2022-10-18T05:55:49.285Z,47.20
2022-10-18T05:58:52.692Z,47.60
2022-10-18T06:01:55.672Z,63.77
2022-10-18T06:04:58.767Z,68.55
2022-10-18T06:08:02.531Z,65.18
2022-10-18T06:11:17.450Z,57.20
2022-10-18T06:14:20.744Z,50.43
2022-10-18T06:17:24.618Z,34.03
2022-10-18T06:20:29.289Z,30.10
2022-10-18T06:23:31.886Z,26.88
2022-10-18T06:26:34.063Z,24.45
2022-10-18T06:29:36.983Z,23.23
2022-10-18T06:32:39.084Z,19.57
2022-10-18T06:35:41.235Z,21.10
2022-10-18T06:38:43.538Z,22.48
2022-10-18T06:41:45.703Z,22.65
2022-10-18T06:44:56.391Z,21.13
2022-10-18T06:47:58.686Z,18.77
2022-10-18T06:51:03.603Z,21.77
2022-10-18T06:54:17.417Z,21.02
2022-10-18T06:57:21.345Z,20.23
2022-10-18T07:00:23.641Z,24.43
2022-10-18T07:03:26.362Z,22.53
2022-10-18T07:06:28.623Z,21.00
2022-10-18T07:09:31.501Z,22.40
2022-10-18T07:12:34.909Z,20.75
2022-10-18T07:15:38.850Z,21.40
2022-10-18T07:18:44.163Z,22.33
2022-10-18T07:21:46.571Z,20.42
2022-10-18T07:24:48.724Z,21.83
2022-10-18T07:27:51.027Z,21.13
2022-10-18T07:30:53.177Z,22.43
2022-10-18T07:33:55.435Z,20.67
2022-10-18T07:36:57.999Z,21.35
2022-10-18T07:40:00.181Z,21.92
2022-10-18T07:43:04.672Z,25.52
2022-10-18T07:46:07.256Z,21.90
2022-10-18T07:49:09.401Z,22.47
2022-10-18T07:52:11.816Z,19.17
2022-10-18T07:55:14.094Z,24.30
2022-10-18T07:58:16.258Z,23.08
2022-10-18T08:01:19.341Z,21.90
2022-10-18T08:04:21.514Z,21.07
2022-10-18T08:07:23.699Z,20.85
2022-10-18T08:10:25.875Z,20.02
2022-10-18T08:13:28.050Z,20.30
2022-10-18T08:19:34.802Z,19.37
2022-10-18T08:22:36.906Z,19.77
2022-10-18T08:25:39.252Z,18.85
2022-10-18T08:28:46.160Z,18.90
2022-10-18T08:32:01.652Z,18.80
2022-10-18T08:35:06.951Z,21.33
2022-10-18T08:38:17.982Z,21.33
2022-10-18T08:41:39.500Z,21.02
2022-10-18T08:44:47.455Z,22.05
2022-10-18T08:47:52.062Z,21.43
2022-10-18T08:50:56.394Z,22.67
2022-10-18T08:54:06.215Z,22.95
2022-10-18T08:57:14.915Z,25.55
2022-10-18T09:00:22.447Z,23.73
2022-10-18T09:03:44.493Z,22.53
2022-10-18T09:07:02.971Z,23.30
2022-10-18T09:10:26.542Z,23.45
2022-10-18T09:13:46.605Z,20.30
2022-10-18T09:16:54.792Z,19.75
2022-10-18T09:20:05.815Z,20.17
2022-10-18T09:23:21.218Z,18.83
2022-10-18T09:26:24.718Z,19.25
2022-10-18T09:29:51.900Z,19.88
2022-10-18T09:33:18.459Z,18.70
2022-10-18T09:36:23.183Z,18.13
2022-10-18T09:39:30.763Z,19.93
2022-10-18T09:42:51.980Z,20.35
2022-10-18T09:45:54.669Z,20.48
2022-10-18T09:49:17.441Z,19.20
2022-10-18T09:52:32.778Z,19.43
2022-10-18T09:55:40.924Z,16.43
2022-10-18T09:58:44.589Z,14.63
2022-10-18T10:01:46.893Z,21.48
2022-10-18T10:04:50.046Z,16.73
2022-10-18T10:07:58.656Z,15.90
2022-10-18T10:11:01.272Z,15.50
2022-10-18T10:14:12.485Z,16.00
2022-10-18T10:17:24.225Z,13.65
2022-10-18T10:20:46.550Z,13.63
2022-10-18T10:23:54.893Z,11.57
2022-10-18T10:27:02.544Z,13.20
2022-10-18T10:30:22.790Z,10.55
2022-10-18T10:33:38.605Z,13.75
2022-10-18T10:36:49.525Z,10.30
2022-10-18T10:40:28.774Z,9.70
2022-10-18T10:43:39.367Z,10.23
2022-10-18T10:46:42.050Z,9.85
2022-10-18T10:49:46.959Z,11.25
2022-10-18T10:52:49.158Z,10.25
2022-10-18T10:55:54.405Z,8.53
2022-10-18T10:59:01.859Z,9.63
2022-10-18T11:02:37.093Z,9.70
2022-10-18T11:05:53.150Z,11.30
2022-10-18T11:09:09.565Z,9.15
2022-10-18T11:12:18.732Z,9.37
2022-10-18T11:16:01.043Z,9.70
2022-10-18T11:19:28.466Z,7.85
2022-10-18T11:23:03.974Z,9.00
2022-10-18T11:26:12.052Z,8.50
2022-10-18T11:30:07.417Z,8.37
2022-10-18T11:34:03.494Z,11.30
2022-10-18T11:37:30.284Z,10.15
2022-10-18T11:41:11.857Z,9.05
2022-10-18T11:44:22.669Z,8.32
2022-10-18T11:47:55.816Z,8.43
2022-10-18T11:51:15.842Z,8.57
2022-10-18T11:54:56.824Z,9.80
2022-10-18T11:58:23.190Z,8.80
2022-10-18T12:01:43.561Z,8.90
2022-10-18T12:04:58.541Z,7.33
2022-10-18T12:08:33.170Z,8.73
2022-10-18T12:11:47.240Z,6.82
2022-10-18T12:14:59.640Z,8.20
2022-10-18T12:18:06.304Z,7.78
2022-10-18T12:21:08.516Z,7.20
2022-10-18T12:24:21.759Z,8.53
2022-10-18T12:27:32.979Z,8.60
2022-10-18T12:31:17.646Z,7.75
2022-10-18T12:34:22.383Z,8.82
2022-10-18T12:37:45.771Z,8.60
2022-10-18T12:40:54.057Z,7.67
2022-10-18T12:44:16.546Z,7.72
2022-10-18T12:47:24.014Z,7.32
2022-10-18T12:50:38.754Z,9.63
2022-10-18T12:53:42.397Z,9.17
2022-10-18T12:56:46.772Z,10.57
2022-10-18T12:59:49.005Z,7.03
2022-10-18T13:03:14.316Z,8.35
2022-10-18T13:06:16.494Z,6.50
2022-10-18T13:09:21.242Z,8.33
2022-10-18T13:12:23.363Z,6.57
2022-10-18T13:15:43.678Z,7.32
2022-10-18T13:18:58.499Z,8.50
2022-10-18T13:22:28.529Z,7.90
2022-10-18T13:25:54.999Z,9.80
2022-10-18T13:29:31.440Z,8.40
2022-10-18T13:33:02.846Z,8.95
2022-10-18T13:36:22.579Z,9.30
2022-10-18T13:39:26.181Z,8.15
2022-10-18T13:42:31.844Z,9.57
2022-10-18T13:45:34.368Z,7.10
2022-10-18T13:48:36.514Z,8.48
2022-10-18T13:51:50.022Z,9.50
2022-10-18T13:55:30.457Z,9.57
2022-10-18T13:59:05.723Z,6.90
2022-10-18T14:02:50.942Z,11.63
2022-10-18T14:06:02.083Z,8.82
2022-10-18T14:09:26.076Z,6.63
2022-10-18T14:12:39.091Z,7.50
2022-10-18T14:15:44.232Z,6.87
2022-10-18T14:18:48.144Z,8.47
2022-10-18T14:21:59.122Z,8.57
2022-10-18T14:25:02.522Z,9.82
2022-10-18T14:28:10.113Z,7.32
2022-10-18T14:31:16.367Z,10.03
2022-10-18T14:34:18.573Z,9.37
2022-10-18T14:37:27.567Z,7.95
2022-10-18T14:40:34.856Z,6.97
2022-10-18T14:43:37.110Z,8.80
2022-10-18T14:46:44.137Z,8.40
2022-10-18T14:49:46.883Z,8.73
2022-10-18T14:52:49.469Z,7.07
2022-10-18T14:55:55.798Z,8.00
2022-10-18T14:59:00.723Z,8.75
2022-10-18T15:02:12.429Z,9.27
2022-10-18T15:05:25.242Z,7.83
2022-10-18T15:08:35.908Z,8.57
2022-10-18T15:11:41.254Z,9.32
2022-10-18T15:14:43.819Z,6.82
2022-10-18T15:17:48.302Z,8.13
2022-10-18T15:21:21.102Z,10.70
2022-10-18T15:24:26.336Z,8.48
2022-10-18T15:27:36.794Z,8.02
2022-10-18T15:30:42.865Z,7.72
2022-10-18T15:33:45.362Z,10.23
2022-10-18T15:36:49.609Z,9.10
2022-10-18T15:40:31.853Z,9.20
2022-10-18T15:43:39.995Z,9.07
2022-10-18T15:46:42.457Z,8.57
2022-10-18T15:49:56.563Z,8.53
2022-10-18T15:53:21.763Z,11.07
2022-10-18T15:56:37.003Z,11.68
2022-10-18T16:00:15.587Z,12.80
2022-10-18T16:03:19.133Z,10.55
2022-10-18T16:06:21.530Z,9.17
2022-10-18T16:09:25.279Z,12.57
2022-10-18T16:12:27.447Z,10.68
2022-10-18T16:15:29.704Z,13.73
2022-10-18T16:18:31.789Z,12.68
2022-10-18T16:21:41.149Z,18.63
2022-10-18T16:24:43.417Z,43.60
2022-10-18T16:27:45.661Z,21.58
2022-10-18T16:30:54.249Z,18.88
2022-10-18T16:33:57.027Z,20.50
2022-10-18T16:36:59.396Z,22.73
2022-10-18T16:40:21.574Z,54.03
2022-10-18T16:43:24.462Z,22.52
2022-10-18T16:46:29.881Z,18.38
2022-10-18T16:49:33.288Z,16.33
2022-10-18T16:52:35.845Z,13.77
2022-10-18T16:55:39.373Z,17.20
2022-10-18T16:58:42.035Z,17.58
2022-10-18T17:01:44.396Z,19.00
2022-10-18T17:04:46.576Z,16.67
2022-10-18T17:07:49.392Z,18.17
2022-10-18T17:10:54.534Z,28.47
2022-10-18T17:13:56.731Z,25.13
2022-10-18T17:16:59.271Z,26.40
2022-10-18T17:20:01.954Z,26.27
2022-10-18T17:23:04.468Z,28.97
2022-10-18T17:26:29.429Z,25.67
2022-10-18T17:29:32.810Z,28.85
2022-10-18T17:32:35.719Z,29.52
2022-10-18T17:35:38.758Z,29.73
2022-10-18T17:38:41.239Z,23.70
2022-10-18T17:41:43.851Z,27.23
2022-10-18T17:44:46.296Z,24.02
2022-10-18T17:47:48.830Z,23.85
2022-10-18T17:50:53.414Z,22.98
2022-10-18T17:53:56.254Z,22.70
2022-10-18T17:56:58.948Z,26.07
2022-10-18T18:00:03.233Z,34.38
2022-10-18T18:03:17.092Z,25.17
2022-10-18T18:06:31.435Z,34.10
2022-10-18T18:09:34.272Z,27.47
2022-10-18T18:12:36.861Z,23.50
2022-10-18T18:15:39.518Z,20.45
2022-10-18T18:18:43.461Z,21.02
2022-10-18T18:21:45.730Z,21.77
2022-10-18T18:24:48.327Z,22.30
2022-10-18T18:27:51.577Z,31.43
2022-10-18T18:30:54.264Z,40.00
2022-10-18T18:33:58.342Z,31.63
2022-10-18T18:37:00.950Z,39.15
2022-10-18T18:40:03.912Z,36.93
2022-10-18T18:43:12.373Z,34.70
2022-10-18T18:46:27.504Z,36.88
2022-10-18T18:49:31.719Z,32.15
2022-10-18T18:52:34.693Z,33.45
2022-10-18T18:55:40.127Z,27.57
2022-10-18T18:58:45.229Z,31.10
2022-10-18T19:01:50.936Z,32.55
2022-10-18T19:04:53.802Z,37.92
2022-10-18T19:07:55.980Z,36.20
2022-10-18T19:10:58.633Z,41.47
2022-10-18T19:14:02.295Z,33.60
2022-10-18T19:17:08.251Z,35.17
2022-10-18T19:20:12.925Z,32.00
2022-10-18T19:23:16.585Z,33.10
2022-10-18T19:26:37.537Z,27.27
2022-10-18T19:29:40.768Z,32.90
2022-10-18T19:32:43.399Z,27.63
2022-10-18T19:35:46.258Z,29.38
2022-10-18T19:38:48.541Z,37.70
2022-10-18T19:41:58.678Z,47.03
2022-10-18T19:45:01.376Z,37.63
2022-10-18T19:48:04.151Z,39.88
2022-10-18T19:51:09.403Z,39.85
2022-10-18T19:54:13.876Z,35.30
2022-10-18T19:57:16.599Z,35.80
2022-10-18T20:00:19.766Z,31.43
2022-10-18T20:03:23.807Z,35.15
2022-10-18T20:06:26.734Z,42.63
2022-10-18T20:09:29.285Z,40.70
2022-10-18T20:12:31.701Z,35.43
2022-10-18T20:15:34.016Z,26.87
2022-10-18T20:18:37.045Z,30.77
2022-10-18T20:21:40.017Z,31.67
2022-10-18T20:24:42.449Z,28.63
2022-10-18T20:27:44.726Z,32.00
2022-10-18T20:30:46.895Z,35.47
2022-10-18T20:34:03.049Z,36.38
2022-10-18T20:37:05.175Z,39.92
2022-10-18T20:40:07.989Z,57.40
2022-10-18T20:43:10.130Z,44.87
2022-10-18T20:46:12.304Z,36.63
2022-10-18T20:49:15.984Z,38.97
2022-10-18T20:52:18.126Z,39.00
2022-10-18T20:55:20.368Z,38.88
2022-10-18T20:58:22.516Z,38.33
2022-10-18T21:01:30.202Z,35.93
2022-10-18T21:04:32.452Z,39.72
2022-10-18T21:07:34.918Z,36.92
2022-10-18T21:10:37.269Z,38.08
2022-10-18T21:13:40.968Z,38.23
2022-10-18T21:16:43.842Z,39.83
2022-10-18T21:19:46.008Z,41.88
2022-10-18T21:22:48.468Z,38.25
2022-10-18T21:25:50.567Z,43.72
2022-10-18T21:28:54.367Z,46.67
2022-10-18T21:31:59.450Z,48.90
2022-10-18T21:35:01.703Z,41.38
2022-10-18T21:38:05.012Z,50.97
2022-10-18T21:41:13.594Z,45.83
2022-10-18T21:44:16.444Z,47.70
2022-10-18T21:47:18.652Z,54.00
2022-10-18T21:50:21.732Z,49.90
2022-10-18T21:53:24.027Z,44.17
2022-10-18T21:56:33.891Z,41.95
2022-10-18T21:59:36.742Z,49.57
2022-10-18T22:02:39.127Z,44.30
2022-10-18T22:05:41.303Z,46.65
2022-10-18T22:08:54.780Z,46.95
2022-10-18T22:11:57.210Z,45.50
2022-10-18T22:15:00.398Z,45.57
2022-10-18T22:18:02.570Z,40.63
2022-10-18T22:21:06.450Z,42.13
2022-10-18T22:24:09.237Z,42.90
2022-10-18T22:27:11.391Z,47.92
2022-10-18T22:30:13.619Z,45.30
2022-10-18T22:33:15.900Z,43.37
2022-10-18T22:36:18.083Z,51.63
2022-10-18T22:39:20.320Z,43.33
2022-10-18T22:42:22.561Z,48.35
2022-10-18T22:45:24.827Z,50.67
2022-10-18T22:48:26.926Z,53.33
2022-10-18T22:51:29.145Z,54.40
2022-10-18T22:54:31.504Z,59.22
2022-10-18T22:57:33.861Z,58.88
2022-10-18T23:03:45.651Z,61.37
2022-10-18T23:06:47.823Z,61.55
2022-10-18T23:09:50.005Z,59.88
2022-10-18T23:12:52.185Z,56.13
2022-10-18T23:16:04.304Z,58.87
2022-10-18T23:19:06.960Z,53.53
2022-10-18T23:22:09.281Z,56.78
2022-10-18T23:25:11.418Z,53.88
2022-10-18T23:28:13.560Z,54.88
2022-10-18T23:31:19.889Z,53.90
2022-10-18T23:34:22.112Z,53.33
2022-10-18T23:37:24.232Z,54.90
2022-10-18T23:40:26.366Z,57.47
2022-10-18T23:43:28.686Z,54.75
2022-10-18T23:46:30.830Z,58.33
2022-10-18T23:49:33.032Z,49.83
2022-10-18T23:52:35.173Z,53.78
2022-10-18T23:55:37.408Z,51.38
2022-10-18T23:58:39.937Z,55.17
